Time;durP1;ratioP1;P1;durP2;ratioP2;P2;SDS_P1;SDS_P2;PMS_P1;PMS_P2;Temp;Humidity;BMP_temperature;BMP_pressure;BME280_temperature;BME280_humidity;BME280_pressure;Samples;Min_cycle;Max_cycle;Signal;HPM_P1;HPM_P2
2022/02/13 00:01:35;;;;;;;9.88;3.75;;;;;;;-0.23;64.89;102384.96;1722839;81;21033;-55
2022/02/13 00:04:03;;;;;;;8.30;3.72;;;;;;;-0.24;64.92;102389.70;1687372;83;21070;-55
2022/02/13 00:06:29;;;;;;;6.87;3.37;;;;;;;-0.25;64.88;102391.43;1720480;81;21069;-55
2022/02/13 00:08:55;;;;;;;8.43;4.22;;;;;;;-0.26;65.00;102387.11;1689569;83;21082;-55
2022/02/13 00:11:23;;;;;;;8.18;3.77;;;;;;;-0.23;64.92;102388.40;1705060;82;21169;-55
2022/02/13 00:13:49;;;;;;;8.70;3.83;;;;;;;-0.24;64.81;102394.42;1723167;81;21571;-55
2022/02/13 00:16:17;;;;;;;10.90;4.22;;;;;;;-0.26;64.86;102392.28;1721000;81;21583;-55
2022/02/13 00:18:44;;;;;;;8.75;3.80;;;;;;;-0.26;64.93;102395.31;1691902;82;22302;-55
2022/02/13 00:21:12;;;;;;;9.53;4.08;;;;;;;-0.27;64.94;102391.88;1720571;81;21081;-55
2022/02/13 00:23:39;;;;;;;9.10;4.22;;;;;;;-0.25;64.84;102393.17;1690760;83;21189;-55
2022/02/13 00:26:05;;;;;;;8.63;4.00;;;;;;;-0.23;64.88;102398.75;1691741;83;21126;-55
2022/02/13 00:28:36;;;;;;;8.05;4.30;;;;;;;-0.20;64.85;102399.19;1691690;83;21109;-55
2022/02/13 00:31:01;;;;;;;10.03;4.87;;;;;;;-0.16;64.88;102395.71;1693278;82;21037;-55
2022/02/13 00:33:28;;;;;;;8.48;4.45;;;;;;;-0.13;64.69;102393.12;1716146;81;21630;-56
2022/02/13 00:35:54;;;;;;;9.73;4.08;;;;;;;-0.16;64.33;102390.53;1723396;81;22220;-56
2022/02/13 00:38:21;;;;;;;9.73;4.42;;;;;;;-0.21;64.26;102393.57;1689878;81;21603;-55
2022/02/13 00:40:47;;;;;;;11.55;4.80;;;;;;;-0.23;64.30;102390.14;1726479;81;21564;-55
2022/02/13 00:43:14;;;;;;;12.03;4.20;;;;;;;-0.27;64.40;102388.00;1722026;81;21556;-56
2022/02/13 00:45:40;;;;;;;9.83;4.37;;;;;;;-0.29;64.40;102388.41;1696320;83;21627;-56
2022/02/13 00:48:10;;;;;;;8.03;3.98;;;;;;;-0.32;64.46;102388.84;1727047;81;21152;-55
2022/02/13 00:50:38;;;;;;;10.03;4.42;;;;;;;-0.32;64.57;102387.55;1726246;81;21022;-55
2022/02/13 00:53:07;;;;;;;8.60;3.75;;;;;;;-0.28;64.56;102388.00;1723901;81;21061;-56
2022/02/13 00:55:34;;;;;;;9.65;4.70;;;;;;;-0.26;64.59;102387.55;1722997;81;21006;-55
2022/02/13 00:58:00;;;;;;;9.20;4.87;;;;;;;-0.25;64.58;102385.41;1687918;83;21078;-55
2022/02/13 01:00:27;;;;;;;8.23;4.03;;;;;;;-0.23;64.47;102376.75;1725702;81;21106;-56
2022/02/13 01:02:55;;;;;;;10.75;5.12;;;;;;;-0.23;64.37;102379.78;1719709;81;21542;-56
2022/02/13 01:05:21;;;;;;;9.03;4.08;;;;;;;-0.20;64.30;102382.37;1727380;81;21540;-55
2022/02/13 01:07:48;;;;;;;8.18;3.95;;;;;;;-0.22;64.23;102379.78;1701799;81;21360;-56
2022/02/13 01:10:14;;;;;;;8.03;4.30;;;;;;;-0.28;64.20;102379.79;1723049;81;21070;-55
2022/02/13 01:12:41;;;;;;;9.20;3.90;;;;;;;-0.34;64.43;102374.62;1725144;81;21144;-55
2022/02/13 01:15:09;;;;;;;10.03;3.70;;;;;;;-0.35;64.46;102379.39;1722820;81;21363;-55
2022/02/13 01:17:35;;;;;;;9.58;3.22;;;;;;;-0.36;64.46;102377.66;1724256;81;21053;-56
2022/02/13 01:20:04;;;;;;;9.15;4.10;;;;;;;-0.38;64.60;102378.09;1721032;81;21138;-55
2022/02/13 01:22:32;;;;;;;9.70;4.03;;;;;;;-0.38;64.65;102378.95;1721048;82;20985;-55
2022/02/13 01:24:59;;;;;;;7.47;3.62;;;;;;;-0.39;64.71;102382.42;1720583;81;21149;-57
2022/02/13 01:27:25;;;;;;;7.67;3.62;;;;;;;-0.39;64.66;102387.59;1692760;82;21066;-56
2022/02/13 01:29:51;;;;;;;10.30;4.17;;;;;;;-0.38;64.68;102382.83;1725331;81;21001;-56
2022/02/13 01:32:18;;;;;;;8.50;3.20;;;;;;;-0.39;64.45;102374.66;1720519;81;21083;-56
2022/02/13 01:34:45;;;;;;;8.25;3.70;;;;;;;-0.37;64.65;102379.80;1726423;81;21082;-56
2022/02/13 01:37:12;;;;;;;7.33;3.50;;;;;;;-0.38;64.64;102378.95;1690618;82;21053;-55
2022/02/13 01:39:38;;;;;;;8.75;4.33;;;;;;;-0.39;64.63;102378.54;1659270;83;21117;-55
2022/02/13 01:42:09;;;;;;;7.05;3.45;;;;;;;-0.43;64.67;102366.91;1721613;81;21565;-56
2022/02/13 01:44:35;;;;;;;8.73;3.98;;;;;;;-0.44;64.73;102372.93;1717673;81;21037;-56
2022/02/13 01:47:04;;;;;;;7.05;3.80;;;;;;;-0.46;64.76;102374.66;1728782;81;21030;-56
2022/02/13 01:49:30;;;;;;;6.85;3.30;;;;;;;-0.53;64.67;102371.23;1695739;83;21123;-55
2022/02/13 01:52:00;;;;;;;8.60;3.37;;;;;;;-0.57;64.79;102381.16;1694322;82;21079;-56
2022/02/13 01:54:26;;;;;;;10.70;3.65;;;;;;;-0.62;64.94;102378.58;1697289;82;21102;-56
2022/02/13 01:56:53;;;;;;;8.85;4.33;;;;;;;-0.63;65.03;102378.58;1671897;84;21093;-55
2022/02/13 01:59:20;;;;;;;10.08;3.58;;;;;;;-0.63;65.29;102383.30;1698721;82;21160;-57
2022/02/13 02:01:46;;;;;;;9.63;3.62;;;;;;;-0.65;65.23;102376.43;1700980;82;21120;-56
2022/02/13 02:04:13;;;;;;;7.10;3.35;;;;;;;-0.67;65.28;102380.30;1698218;82;21607;-56
2022/02/13 02:06:40;;;;;;;7.05;3.40;;;;;;;-0.68;65.34;102388.06;1698260;83;21131;-56
2022/02/13 02:09:07;;;;;;;6.65;2.95;;;;;;;-0.67;65.47;102394.94;1722901;81;21105;-56
2022/02/13 02:11:33;;;;;;;8.75;3.62;;;;;;;-0.66;65.50;102387.18;1691000;83;21074;-55
2022/02/13 02:14:01;;;;;;;8.93;3.77;;;;;;;-0.68;65.52;102387.62;1718668;81;21086;-56
2022/02/13 02:16:30;;;;;;;7.12;3.80;;;;;;;-0.66;65.52;102390.20;1719033;81;21623;-55
2022/02/13 02:18:56;;;;;;;6.20;3.05;;;;;;;-0.65;65.56;102390.66;1725582;81;21600;-56
2022/02/13 02:21:22;;;;;;;5.83;2.75;;;;;;;-0.64;65.66;102389.36;1720398;81;22248;-56
2022/02/13 02:23:49;;;;;;;9.20;3.22;;;;;;;-0.62;65.55;102387.62;1690120;83;21624;-56
2022/02/13 02:26:19;;;;;;;10.13;3.87;;;;;;;-0.65;65.48;102387.62;1720655;81;22080;-56
2022/02/13 02:28:46;;;;;;;7.47;3.27;;;;;;;-0.67;65.50;102388.47;1724705;81;21052;-56
2022/02/13 02:31:12;;;;;;;7.58;3.58;;;;;;;-0.64;65.50;102382.02;1723951;81;21105;-56
2022/02/13 02:33:39;;;;;;;7.95;3.40;;;;;;;-0.63;65.43;102380.72;1727437;81;21066;-56
2022/02/13 02:36:14;;;;;;;9.10;3.55;;;;;;;-0.59;65.32;102384.16;1722173;81;21079;-56
2022/02/13 02:38:41;;;;;;;7.20;4.00;;;;;;;-0.59;65.13;102394.09;1705283;81;21107;-56
2022/02/13 02:41:07;;;;;;;8.83;3.62;;;;;;;-0.59;65.09;102392.80;1732243;81;21009;-57
2022/02/13 02:43:34;;;;;;;8.38;4.00;;;;;;;-0.57;65.27;102393.66;1730573;81;21557;-56
2022/02/13 02:46:00;;;;;;;10.63;4.33;;;;;;;-0.58;64.97;102388.03;1678876;84;21483;-55
2022/02/13 02:48:26;;;;;;;10.10;4.28;;;;;;;-0.60;64.73;102385.89;1730162;81;21653;-55
2022/02/13 02:50:53;;;;;;;8.90;3.50;;;;;;;-0.63;64.60;102384.59;1709860;82;21547;-56
2022/02/13 02:53:19;;;;;;;6.90;3.83;;;;;;;-0.67;64.54;102382.89;1734502;81;21465;-56
2022/02/13 02:55:46;;;;;;;6.30;3.20;;;;;;;-0.69;64.49;102381.16;1730809;81;21128;-56
2022/02/13 02:58:12;;;;;;;9.55;4.72;;;;;;;-0.71;64.30;102394.08;1730999;81;21045;-56
2022/02/13 03:00:39;;;;;;;8.58;4.30;;;;;;;-0.73;64.50;102393.23;1700513;82;21129;-56
2022/02/13 03:03:05;;;;;;;7.97;4.12;;;;;;;-0.73;64.70;102398.40;1724908;81;21442;-56
2022/02/13 03:05:32;;;;;;;8.90;4.05;;;;;;;-0.79;64.83;102397.98;1700149;82;22009;-56
2022/02/13 03:07:59;;;;;;;9.73;5.03;;;;;;;-0.83;65.11;102394.95;1733224;81;20988;-56
2022/02/13 03:10:26;;;;;;;14.83;4.62;;;;;;;-0.87;65.30;102395.83;1733568;81;21052;-56
2022/02/13 03:12:52;;;;;;;9.95;4.33;;;;;;;-0.87;65.48;102404.02;1732247;81;21107;-56
2022/02/13 03:15:20;;;;;;;10.18;4.25;;;;;;;-0.90;65.64;102400.14;1731831;81;22065;-56
2022/02/13 03:17:46;;;;;;;6.20;3.02;;;;;;;-0.91;65.82;102392.80;1704066;82;21151;-56
2022/02/13 03:20:13;;;;;;;6.97;3.62;;;;;;;-0.88;65.92;102385.48;1731161;81;21073;-56
2022/02/13 03:22:39;;;;;;;8.13;3.30;;;;;;;-0.86;65.93;102389.78;1707159;82;21530;-56
2022/02/13 03:25:07;;;;;;;8.18;4.08;;;;;;;-0.84;65.83;102384.20;1730596;81;21128;-56
2022/02/13 03:27:35;;;;;;;8.18;3.47;;;;;;;-0.84;65.74;102386.78;1700292;82;21107;-56
2022/02/13 03:30:01;;;;;;;8.05;3.37;;;;;;;-0.85;65.59;102382.91;1730239;81;21000;-57
2022/02/13 03:32:28;;;;;;;7.15;3.50;;;;;;;-0.87;65.49;102379.47;1731426;81;21121;-56
2022/02/13 03:34:54;;;;;;;8.10;3.47;;;;;;;-0.88;65.50;102381.17;1735686;81;21148;-56
2022/02/13 03:37:20;;;;;;;8.43;3.87;;;;;;;-0.89;65.42;102379.47;1672802;84;21113;-56
2022/02/13 03:39:47;;;;;;;8.15;3.87;;;;;;;-0.88;65.59;102377.30;1660258;84;21221;-56
2022/02/13 03:42:14;;;;;;;6.75;3.90;;;;;;;-0.85;65.69;102379.03;1678359;83;21137;-56
2022/02/13 03:44:40;;;;;;;7.60;3.45;;;;;;;-0.86;65.65;102382.02;1676705;83;21136;-57
2022/02/13 03:47:07;;;;;;;7.37;3.60;;;;;;;-0.85;65.62;102385.49;1680112;83;21153;-56
2022/02/13 03:49:34;;;;;;;9.38;3.95;;;;;;;-0.85;65.54;102382.91;1677664;83;21113;-56
2022/02/13 03:52:01;;;;;;;9.95;4.50;;;;;;;-0.89;65.52;102373.41;1674936;83;21154;-56
2022/02/13 03:54:27;;;;;;;7.67;3.40;;;;;;;-0.89;65.57;102369.13;1659223;83;21045;-56
2022/02/13 03:56:54;;;;;;;7.20;3.37;;;;;;;-0.90;65.39;102363.52;1700818;82;21083;-56
2022/02/13 03:59:20;;;;;;;7.33;3.60;;;;;;;-0.90;65.39;102363.52;1700466;82;21069;-56
2022/02/13 04:01:46;;;;;;;8.55;4.17;;;;;;;-0.91;65.24;102366.09;1703331;82;21086;-56
2022/02/13 04:04:14;;;;;;;10.03;4.25;;;;;;;-0.98;65.33;102361.36;1671553;84;21517;-56
2022/02/13 04:06:40;;;;;;;11.00;3.90;;;;;;;-1.01;65.37;102358.37;1730508;81;21560;-56
2022/02/13 04:09:07;;;;;;;7.78;4.22;;;;;;;-1.00;65.26;102360.51;1736349;81;21163;-56
2022/02/13 04:11:34;;;;;;;9.15;3.98;;;;;;;-1.02;65.21;102357.92;1734551;81;21168;-54
2022/02/13 04:14:01;;;;;;;8.15;3.50;;;;;;;-1.03;65.17;102352.31;1730094;81;20989;-56
2022/02/13 04:16:28;;;;;;;5.55;3.17;;;;;;;-1.04;65.11;102344.15;1727614;81;21921;-55
2022/02/13 04:18:54;;;;;;;6.37;3.62;;;;;;;-1.06;65.15;102348.46;1731775;81;21572;-54
2022/02/13 04:21:22;;;;;;;9.55;3.65;;;;;;;-1.05;65.10;102346.73;1675130;82;21119;-59
2022/02/13 04:23:49;;;;;;;6.70;3.80;;;;;;;-1.08;65.11;102345.44;1723320;81;21104;-57
2022/02/13 04:26:16;;;;;;;8.93;3.85;;;;;;;-1.12;64.98;102349.30;1725167;81;21148;-58
2022/02/13 04:28:42;;;;;;;8.40;3.58;;;;;;;-1.17;64.97;102345.01;1722959;81;21149;-58
2022/02/13 04:31:09;;;;;;;10.63;4.17;;;;;;;-1.23;64.97;102338.09;1724598;81;21050;-58
2022/02/13 04:33:35;;;;;;;8.58;4.55;;;;;;;-1.27;65.13;102345.42;1698537;82;21107;-58
2022/02/13 04:36:03;;;;;;;7.08;3.92;;;;;;;-1.32;65.25;102353.16;1698750;81;21065;-57
2022/02/13 04:38:30;;;;;;;6.40;3.30;;;;;;;-1.38;65.36;102350.59;1702058;81;21085;-57
2022/02/13 04:40:58;;;;;;;9.98;3.75;;;;;;;-1.44;65.94;102349.28;1694171;83;21151;-55
2022/02/13 04:43:25;;;;;;;7.42;3.90;;;;;;;-1.44;65.94;102349.28;1694724;82;21074;-56
2022/02/13 04:45:52;;;;;;;9.48;3.65;;;;;;;-1.42;66.02;102357.03;1690177;83;21085;-56
2022/02/13 04:48:18;;;;;;;8.30;3.80;;;;;;;-1.40;66.20;102351.44;1691798;82;21119;-56
2022/02/13 04:50:45;;;;;;;11.12;3.85;;;;;;;-1.40;66.10;102355.31;1698945;82;21063;-56
2022/02/13 04:53:12;;;;;;;7.80;3.65;;;;;;;-1.42;66.15;102354.02;1701036;82;21070;-56
2022/02/13 04:55:38;;;;;;;8.25;4.28;;;;;;;-1.42;66.21;102352.72;1697092;82;21058;-54
2022/02/13 04:58:05;;;;;;;8.60;4.05;;;;;;;-1.40;66.24;102354.88;1696811;82;21136;-55
2022/02/13 05:00:31;;;;;;;12.15;4.33;;;;;;;-1.38;66.24;102366.09;1699824;82;21183;-55
2022/02/13 05:02:58;;;;;;;6.90;3.70;;;;;;;-1.38;66.27;102361.34;1696233;82;21124;-55
2022/02/13 05:05:25;;;;;;;6.95;3.92;;;;;;;-1.40;66.21;102365.64;1693419;82;21157;-56
2022/02/13 05:07:51;;;;;;;6.83;3.47;;;;;;;-1.40;66.21;102353.58;1670965;83;21152;-55
2022/02/13 05:10:17;;;;;;;7.50;3.27;;;;;;;-1.40;66.21;102353.58;1697376;82;21165;-57
2022/02/13 05:12:44;;;;;;;6.17;3.47;;;;;;;-1.40;66.42;102361.33;1698259;82;21067;-56
2022/02/13 05:15:11;;;;;;;9.18;3.95;;;;;;;-1.40;66.43;102366.50;1697287;82;21044;-56
2022/02/13 05:17:37;;;;;;;11.10;4.03;;;;;;;-1.36;66.45;102365.66;1694371;82;22530;-56
2022/02/13 05:20:07;;;;;;;7.80;3.72;;;;;;;-1.34;66.78;102361.34;1695066;82;21089;-56
2022/02/13 05:22:35;;;;;;;9.70;3.92;;;;;;;-1.34;66.78;102361.34;1695219;82;21561;-56
2022/02/13 05:25:01;;;;;;;8.28;3.80;;;;;;;-1.34;66.67;102358.77;1668068;82;21093;-55
2022/02/13 05:27:27;;;;;;;7.87;3.40;;;;;;;-1.32;66.66;102360.91;1696092;82;21129;-55
2022/02/13 05:29:54;;;;;;;11.20;4.75;;;;;;;-1.31;66.72;102364.38;1671349;82;21419;-55
2022/02/13 05:32:20;;;;;;;7.65;4.35;;;;;;;-1.29;66.70;102363.06;1698924;82;21100;-55
2022/02/13 05:34:47;;;;;;;7.67;4.05;;;;;;;-1.27;66.62;102368.67;1688469;82;21105;-56
2022/02/13 05:37:14;;;;;;;14.87;4.83;;;;;;;-1.27;66.62;102368.67;1684360;82;21066;-54
2022/02/13 05:39:41;;;;;;;8.85;4.10;;;;;;;-1.20;66.71;102368.25;1668713;84;21059;-55
2022/02/13 05:42:10;;;;;;;8.58;3.45;;;;;;;-1.14;66.67;102369.56;1670804;84;21158;-55
2022/02/13 05:44:38;;;;;;;9.23;4.92;;;;;;;-1.08;66.44;102373.41;1664476;84;21109;-55
2022/02/13 05:47:05;;;;;;;8.20;3.62;;;;;;;-1.03;66.37;102372.13;1663257;84;21101;-55
2022/02/13 05:49:33;;;;;;;8.13;4.00;;;;;;;-0.99;66.14;102376.02;1669451;84;21183;-54
2022/02/13 05:51:59;;;;;;;9.20;4.83;;;;;;;-0.96;66.06;102376.02;1669059;84;21118;-57
2022/02/13 05:54:26;;;;;;;7.85;4.67;;;;;;;-0.94;65.97;102378.61;1669429;84;21374;-55
2022/02/13 05:56:52;;;;;;;10.32;4.97;;;;;;;-0.94;65.94;102374.30;1667785;84;21500;-56
2022/02/13 05:59:18;;;;;;;11.88;4.05;;;;;;;-0.88;66.08;102369.54;1668018;84;21058;-55
2022/02/13 06:01:45;;;;;;;11.65;4.95;;;;;;;-0.80;65.99;102369.11;1649962;85;21149;-56
2022/02/13 06:04:11;;;;;;;8.85;4.62;;;;;;;-0.75;65.82;102375.13;1646833;85;21093;-57
2022/02/13 06:06:38;;;;;;;10.98;6.37;;;;;;;-0.71;65.71;102376.43;1678570;84;21125;-57
2022/02/13 06:09:05;;;;;;;8.88;4.90;;;;;;;-0.69;65.72;102376.88;1669326;84;21046;-58
2022/02/13 06:11:32;;;;;;;8.88;4.85;;;;;;;-0.63;65.59;102376.84;1670572;84;21090;-57
2022/02/13 06:13:58;;;;;;;10.15;4.67;;;;;;;-0.62;65.37;102381.16;1671381;84;21043;-57
2022/02/13 06:16:25;;;;;;;7.85;4.62;;;;;;;-0.61;65.32;102380.28;1671210;84;21105;-58
2022/02/13 06:18:52;;;;;;;11.80;4.60;;;;;;;-0.54;65.02;102370.78;1673117;84;22285;-57
2022/02/13 06:21:21;;;;;;;8.18;4.42;;;;;;;-0.54;65.02;102370.78;1667976;84;21524;-54
2022/02/13 06:23:49;;;;;;;10.82;5.08;;;;;;;-0.49;64.95;102373.38;1669424;84;21114;-55
2022/02/13 06:26:16;;;;;;;9.48;5.47;;;;;;;-0.45;64.87;102378.54;1664226;84;21526;-54
2022/02/13 06:28:42;;;;;;;7.72;4.03;;;;;;;-0.41;65.01;102373.78;1669985;84;21587;-53
2022/02/13 06:31:09;;;;;;;9.00;5.40;;;;;;;-0.33;65.15;102367.75;1667042;84;21105;-53
2022/02/13 06:33:35;;;;;;;10.30;5.20;;;;;;;-0.27;65.16;102371.17;1652464;84;21023;-54
2022/02/13 06:36:02;;;;;;;9.68;4.22;;;;;;;-0.15;65.22;102371.98;1648013;85;21062;-54
2022/02/13 06:38:29;;;;;;;8.83;4.67;;;;;;;-0.09;65.10;102370.23;1691738;82;21070;-54
2022/02/13 06:42:51;;;;;;;11.63;5.05;;;;;;;-0.06;65.45;102355.14;1844357;76;22633;-54
2022/02/13 06:45:18;;;;;;;12.43;5.60;;;;;;;0.03;65.21;102364.14;1815568;77;21331;-54
2022/02/13 06:47:44;;;;;;;7.70;3.83;;;;;;;0.04;65.25;102360.70;1816817;77;21895;-53
2022/02/13 06:50:11;;;;;;;8.60;4.40;;;;;;;0.09;65.30;102360.25;1814198;77;20892;-54
2022/02/13 06:55:28;;;;;;;9.50;4.20;;;;;;;0.18;65.12;102360.22;1797854;77;21759;-53
2022/02/13 06:57:55;;;;;;;8.50;3.90;;;;;;;0.18;65.12;102360.22;1747711;80;21046;-54
2022/02/13 07:00:22;;;;;;;8.18;3.75;;;;;;;0.23;65.44;102360.61;1692667;81;21093;-54
2022/02/13 07:02:48;;;;;;;7.35;3.83;;;;;;;0.28;65.54;102363.59;1695655;81;21173;-53
2022/02/13 07:05:15;;;;;;;8.70;3.87;;;;;;;0.31;65.51;102361.44;1719897;81;21045;-53
2022/02/13 07:07:42;;;;;;;6.75;3.60;;;;;;;0.36;65.59;102363.56;1721054;81;21074;-54
2022/02/13 07:10:11;;;;;;;7.30;4.03;;;;;;;0.43;65.60;102359.21;1737233;80;21605;-54
2022/02/13 07:12:39;;;;;;;8.43;4.12;;;;;;;0.51;65.62;102363.47;1731566;81;21159;-54
2022/02/13 07:15:06;;;;;;;8.28;3.98;;;;;;;0.58;65.45;102365.58;1716907;81;21121;-54
2022/02/13 07:17:37;;;;;;;8.78;3.90;;;;;;;0.63;65.38;102368.16;1718574;81;21042;-53
2022/02/13 07:20:07;;;;;;;7.95;4.12;;;;;;;0.69;65.32;102371.56;1717485;81;21435;-54
2022/02/13 07:22:35;;;;;;;6.33;3.10;;;;;;;0.74;65.38;102372.83;1720804;81;21070;-54
2022/02/13 07:25:06;;;;;;;6.90;3.25;;;;;;;0.78;65.29;102374.52;1714700;81;21223;-54
2022/02/13 07:27:32;;;;;;;8.13;3.60;;;;;;;0.86;65.21;102363.66;1721117;81;21065;-54
2022/02/13 07:29:58;;;;;;;7.05;3.17;;;;;;;0.89;65.04;102362.34;1718679;81;21141;-54
2022/02/13 07:32:25;;;;;;;6.47;2.80;;;;;;;0.98;65.17;102362.70;1723842;81;21156;-53
2022/02/13 07:34:51;;;;;;;7.45;3.42;;;;;;;1.05;65.05;102363.52;1716367;81;21097;-53
2022/02/13 07:37:20;;;;;;;6.50;3.55;;;;;;;1.15;64.86;102365.59;1721481;81;21597;-55
2022/02/13 07:39:47;;;;;;;7.55;3.45;;;;;;;1.21;64.69;102365.10;1719341;81;21749;-54
2022/02/13 07:42:13;;;;;;;8.33;3.67;;;;;;;1.26;64.64;102354.66;1716940;81;21019;-54
2022/02/13 07:44:41;;;;;;;10.90;4.10;;;;;;;1.32;64.85;102352.47;1688319;82;21113;-55
2022/02/13 07:47:08;;;;;;;10.08;4.35;;;;;;;1.41;64.54;102352.36;1737692;81;21019;-54
2022/02/13 07:49:34;;;;;;;7.12;3.15;;;;;;;1.44;64.29;102350.59;1722816;81;21185;-54
2022/02/13 07:54:51;;;;;;;9.43;3.05;;;;;;;1.60;63.67;102343.96;1843920;75;21995;-53
2022/02/13 07:57:18;;;;;;;7.42;3.35;;;;;;;1.69;63.19;102340.39;1802183;77;21055;-54
2022/02/13 07:59:45;;;;;;;5.78;2.67;;;;;;;1.71;62.90;102347.72;1803740;77;23219;-54
2022/02/13 08:02:13;;;;;;;6.60;2.77;;;;;;;1.74;63.17;102339.45;1808056;77;20954;-54
2022/02/13 08:04:42;;;;;;;6.08;2.58;;;;;;;1.81;63.01;102335.05;1809092;77;21524;-53
2022/02/13 08:07:08;;;;;;;5.75;2.20;;;;;;;1.87;62.38;102332.39;1811176;77;21084;-53
2022/02/13 08:09:34;;;;;;;5.22;2.00;;;;;;;1.92;62.08;102329.30;1801803;77;21023;-55
2022/02/13 08:12:01;;;;;;;6.42;2.40;;;;;;;1.98;61.66;102331.80;1806374;77;21199;-53
2022/02/13 08:14:28;;;;;;;5.75;2.00;;;;;;;2.07;61.36;102333.44;1791430;77;21058;-54
2022/02/13 08:16:55;;;;;;;4.35;1.80;;;;;;;2.11;60.93;102334.25;1787005;78;21046;-54
2022/02/13 08:19:21;;;;;;;8.55;1.80;;;;;;;2.20;60.02;102325.90;1813689;77;21078;-54
2022/02/13 08:21:48;;;;;;;5.78;1.90;;;;;;;2.23;59.56;102315.89;1806082;77;21129;-53
2022/02/13 08:24:14;;;;;;;5.12;1.40;;;;;;;2.29;59.27;102323.61;1759050;80;21222;-54
2022/02/13 08:26:41;;;;;;;4.10;1.35;;;;;;;2.31;58.45;102321.83;1764747;79;21117;-54
2022/02/13 08:29:07;;;;;;;5.95;1.90;;;;;;;2.34;58.00;102321.80;1765910;79;21482;-54
2022/02/13 08:31:34;;;;;;;5.50;2.17;;;;;;;2.36;57.98;102318.73;1765298;79;21647;-54
2022/02/13 08:34:00;;;;;;;4.62;1.72;;;;;;;2.41;57.76;102316.92;1761946;79;20987;-54
2022/02/13 08:36:27;;;;;;;5.03;2.22;;;;;;;2.45;57.23;102316.42;1718743;79;21094;-53
2022/02/13 08:38:53;;;;;;;3.70;1.65;;;;;;;2.49;56.81;102317.23;1760982;79;21102;-56
2022/02/13 08:41:20;;;;;;;5.03;1.90;;;;;;;2.51;57.16;102310.30;1750672;80;21159;-53
2022/02/13 08:43:48;;;;;;;5.17;2.17;;;;;;;2.55;57.25;102314.10;1761362;79;21101;-55
2022/02/13 08:46:15;;;;;;;5.05;2.10;;;;;;;2.61;57.09;102306.67;1739133;79;21172;-54
2022/02/13 08:48:43;;;;;;;6.15;2.10;;;;;;;2.65;57.05;102313.52;1774208;79;21173;-54
2022/02/13 08:51:11;;;;;;;6.22;1.72;;;;;;;2.68;56.94;102318.67;1766397;79;21093;-54
2022/02/13 08:53:37;;;;;;;3.87;1.40;;;;;;;2.74;56.85;102309.48;1767739;79;21105;-55
2022/02/13 08:56:04;;;;;;;5.40;1.67;;;;;;;2.78;55.99;102303.80;1735918;79;21089;-56
2022/02/13 08:58:31;;;;;;;3.92;1.50;;;;;;;2.85;55.48;102298.89;1763759;79;21208;-55
2022/02/13 09:00:59;;;;;;;4.95;1.27;;;;;;;2.92;55.68;102311.35;1742418;79;21112;-55
2022/02/13 09:03:27;;;;;;;3.75;1.30;;;;;;;2.96;53.77;102316.94;1723014;80;21085;-54
2022/02/13 09:05:54;;;;;;;4.30;1.52;;;;;;;2.98;53.26;102306.05;1752060;80;21565;-55
2022/02/13 09:08:21;;;;;;;4.62;1.70;;;;;;;3.03;53.09;102312.03;1750951;80;21074;-53
2022/02/13 09:10:47;;;;;;;5.97;1.65;;;;;;;3.09;52.75;102320.16;1748527;80;21334;-55
2022/02/13 09:13:14;;;;;;;5.05;1.40;;;;;;;3.12;52.90;102301.45;1773577;80;21057;-56
2022/02/13 09:15:41;;;;;;;3.85;1.57;;;;;;;3.16;52.34;102297.92;1745066;80;21113;-54
2022/02/13 09:18:12;;;;;;;4.70;1.75;;;;;;;3.20;52.01;102310.42;1774575;78;21657;-56
2022/02/13 09:20:44;;;;;;;6.58;2.00;;;;;;;3.26;52.29;102301.64;1778796;78;21112;-55
2022/02/13 09:23:08;;;;;;;5.80;1.92;;;;;;;3.30;51.65;102298.11;1751494;80;21120;-55
2022/02/13 09:25:35;;;;;;;4.35;1.65;;;;;;;3.35;52.11;102301.48;1686452;80;21058;-57
2022/02/13 09:28:01;;;;;;;5.25;1.98;;;;;;;3.38;51.98;102301.42;1767881;79;21419;-54
2022/02/13 09:30:28;;;;;;;4.72;1.62;;;;;;;3.41;52.00;102293.53;1765235;79;21062;-55
2022/02/13 09:32:54;;;;;;;4.30;1.50;;;;;;;3.47;52.19;102292.58;1743867;79;21062;-55
2022/02/13 09:35:20;;;;;;;3.72;1.35;;;;;;;3.53;52.43;102291.13;1748211;80;21081;-53
2022/02/13 09:37:48;;;;;;;4.60;1.90;;;;;;;3.64;51.50;102286.58;1770530;79;21124;-53
2022/02/13 09:40:14;;;;;;;6.42;1.60;;;;;;;3.69;51.22;102286.03;1774527;79;21033;-53
2022/02/13 09:42:42;;;;;;;4.87;1.80;;;;;;;3.71;50.77;102286.85;1780636;79;21070;-54
2022/02/13 09:45:11;;;;;;;4.40;1.42;;;;;;;3.74;50.51;102285.09;1748532;80;21449;-54
2022/02/13 09:47:38;;;;;;;4.80;1.52;;;;;;;3.69;50.70;102273.02;1773355;79;21177;-55
2022/02/13 09:50:08;;;;;;;4.53;1.60;;;;;;;3.68;50.90;102272.62;1778836;79;21104;-53
2022/02/13 09:52:36;;;;;;;6.17;2.17;;;;;;;3.71;50.94;102269.93;1761101;79;21148;-54
2022/02/13 09:55:03;;;;;;;4.75;1.85;;;;;;;3.74;50.81;102269.48;1773063;79;21059;-55
2022/02/13 10:00:15;;;;;;;5.65;1.55;;;;;;;3.79;50.60;102269.78;1758224;80;21078;-55
2022/02/13 10:02:43;;;;;;;10.85;2.55;;;;;;;3.83;50.83;102259.73;1743226;80;21798;-58
2022/02/13 10:05:11;;;;;;;4.85;1.95;;;;;;;3.89;50.91;102258.73;1777453;79;21109;-54
2022/02/13 10:07:39;;;;;;;5.92;2.25;;;;;;;3.97;50.34;102263.75;1757174;80;21007;-55
2022/02/13 10:10:09;;;;;;;12.37;2.60;;;;;;;3.99;50.36;102254.17;1767706;79;21133;-56
2022/02/13 10:12:42;;;;;;;5.28;1.82;;;;;;;3.98;50.50;102246.78;1764802;79;21097;-54
2022/02/13 10:15:25;;;;;;;6.90;2.70;;;;;;;4.01;50.71;102246.72;1707509;82;21560;-54
2022/02/13 10:18:08;;;;;;;6.20;2.50;;;;;;;4.06;50.82;102237.05;1736260;81;21066;-54
2022/02/13 10:20:42;;;;;;;6.67;2.35;;;;;;;4.09;50.86;102233.08;1733019;81;21077;-56
2022/02/13 10:23:11;;;;;;;6.03;2.40;;;;;;;4.11;50.68;102236.11;1695738;81;21050;-57
2022/02/13 10:25:38;;;;;;;6.10;2.47;;;;;;;4.11;51.22;102225.23;1729655;81;21177;-56
2022/02/13 10:28:12;;;;;;;6.20;2.37;;;;;;;4.22;50.97;102221.05;1736980;81;22944;-56
2022/02/13 10:30:41;;;;;;;9.23;2.30;;;;;;;4.31;50.62;102227.36;1732369;81;21607;-56
2022/02/13 10:33:27;;;;;;;5.05;2.22;;;;;;;4.38;49.87;102218.94;1740670;80;21068;-55
2022/02/13 10:36:10;;;;;;;7.50;2.33;;;;;;;4.39;50.17;102213.70;1763998;79;21110;-54
2022/02/13 10:38:40;;;;;;;6.10;1.98;;;;;;;4.41;50.03;102211.90;1715693;82;21150;-53
2022/02/13 10:41:20;;;;;;;6.10;2.00;;;;;;;4.44;49.41;102200.09;1766676;80;22165;-55
2022/02/13 10:44:03;;;;;;;4.22;1.62;;;;;;;4.48;49.29;102208.70;1756294;79;21117;-54
2022/02/13 10:46:38;;;;;;;6.78;2.00;;;;;;;4.51;49.26;102198.19;1703443;82;21761;-54
2022/02/13 10:49:06;;;;;;;3.62;1.42;;;;;;;4.53;48.91;102199.45;1751096;79;21058;-55
2022/02/13 10:51:34;;;;;;;3.95;1.52;;;;;;;4.54;48.85;102186.81;1775206;79;21532;-56
2022/02/13 10:54:04;;;;;;;4.60;1.67;;;;;;;4.49;48.95;102186.95;1776269;79;21946;-54
2022/02/13 10:56:32;;;;;;;3.12;1.22;;;;;;;4.51;49.23;102182.55;1778961;79;21086;-53
2022/02/13 10:58:59;;;;;;;4.85;1.80;;;;;;;4.53;49.19;102167.72;1771360;79;21077;-54
2022/02/13 11:01:29;;;;;;;5.00;1.90;;;;;;;4.58;49.10;102167.61;1755166;80;21543;-54
2022/02/13 11:04:02;;;;;;;5.42;1.82;;;;;;;4.61;48.37;102166.23;1784689;78;21401;-53
2022/02/13 11:06:28;;;;;;;4.58;1.90;;;;;;;4.59;48.33;102161.47;1757799;79;21074;-54
2022/02/13 11:09:02;;;;;;;5.42;1.72;;;;;;;4.60;48.75;102172.33;1759249;80;21069;-56
2022/02/13 11:11:31;;;;;;;3.87;1.52;;;;;;;4.61;48.61;102167.08;1784292;78;21145;-54
2022/02/13 11:13:58;;;;;;;5.40;1.35;;;;;;;4.62;48.37;102150.55;1764464;80;21053;-52
2022/02/13 11:16:37;;;;;;;4.92;1.42;;;;;;;4.60;48.37;102145.80;1738637;80;21047;-52
2022/02/13 11:19:09;;;;;;;3.58;1.47;;;;;;;4.62;48.30;102160.97;1771028;80;21238;-52
2022/02/13 11:21:35;;;;;;;3.80;1.57;;;;;;;4.57;48.19;102143.30;1769279;79;66753;-60
2022/02/13 11:24:03;;;;;;;3.50;1.12;;;;;;;4.55;48.34;102140.30;1777306;79;21031;-61
2022/02/13 11:26:43;;;;;;;5.83;1.65;;;;;;;4.51;48.87;102138.23;1775549;79;20927;-63
2022/02/13 11:29:12;;;;;;;5.37;1.98;;;;;;;4.54;48.88;102136.85;1776875;79;21747;-64
2022/02/13 11:31:50;;;;;;;6.05;1.92;;;;;;;4.58;49.01;102129.80;1793920;78;21134;-64
2022/02/13 11:34:31;;;;;;;5.40;2.00;;;;;;;4.66;48.99;102125.23;1774306;79;20962;-63
2022/02/13 11:37:10;;;;;;;4.00;1.42;;;;;;;4.72;48.45;102128.11;1784897;78;21053;-63
2022/02/13 11:39:41;;;;;;;4.42;1.67;;;;;;;4.74;48.33;102132.83;1781944;78;20998;-63